METAR luchtvaart weer gegevens      EHAM Amsterdam Airport Schiphol
Temperatuur
68°F Temperatuur
57°F Dauwpunt
69% Vochtigheid



Wind
8 MPH
13 KM/U
4 M/S
7 KTS



70°
ONO
Huidig weer

Helder Helder
Luchtdruk 1016.92 (hPa) - 30.03 (inHg)
Zicht 6.2 (mijl) - 10 (km)
Vliegveld
Vliegveld code EHAM

Locatie : Amsterdam Airport Schiphol
Afstand: 25 (mi)

Metar:
EHAM 122325Z 07007KT CAVOK 20/14 Q1017 NOSIG

Tijd: 13-08-2022 01:25 CEST